Terminal Aerodrome Forecast
Issued by NWS

Home | Current Version | Previous Version | Text Only | Print | Product List | Glossary Off
Versions: 1 2 3 4 5 6 7 8 9 10 11 12 13 14 15 16 17 18 19 20

083
FTUS42 KMHX 230549
TAFISO
TAF
KISO 230549Z 2306/2406 00000KT P6SM OVC003
     FM230700 VRB03KT 3SM BR OVC004
     FM231300 03004KT P6SM BKN015
     FM231700 03005KT P6SM VCSH BKN050
     FM240000 VRB03KT P6SM SCT050
      AMD LTD TO CLD VIS AND WIND=

USA.gov is the U.S. government's official web portal to all federal, state and local government web resources and services.